Time;durP1;ratioP1;P1;durP2;ratioP2;P2;SDS_P1;SDS_P2;PMS_P1;PMS_P2;Temp;Humidity;BMP_temperature;BMP_pressure;BME280_temperature;BME280_humidity;BME280_pressure;Samples;Min_cycle;Max_cycle;Signal;HPM_P1;HPM_P2
2021/05/17 00:01:32;;;;;;;6.03;1.00;;;;;;;;;;4905613;29;20240;-56
2021/05/17 00:04:00;;;;;;;6.55;1.20;;;;;;;;;;4907354;29;20136;-55
2021/05/17 00:06:26;;;;;;;8.52;1.58;;;;;;;;;;4905659;29;20051;-55
2021/05/17 00:08:53;;;;;;;5.43;1.05;;;;;;;;;;4911326;29;20066;-56
2021/05/17 00:11:18;;;;;;;7.72;3.35;;;;;;;;;;4911742;29;20433;-61
2021/05/17 00:13:44;;;;;;;14.23;1.70;;;;;;;;;;4915071;29;20043;-59
2021/05/17 00:16:10;;;;;;;5.70;1.45;;;;;;;;;;4910225;29;20825;-60
2021/05/17 00:18:36;;;;;;;5.65;1.40;;;;;;;;;;4913547;29;20036;-60
2021/05/17 00:21:02;;;;;;;5.07;1.33;;;;;;;;;;4916767;29;20067;-60
2021/05/17 00:23:28;;;;;;;3.63;0.90;;;;;;;;;;4915040;29;20051;-61
2021/05/17 00:25:54;;;;;;;6.18;1.25;;;;;;;;;;4913249;29;20503;-60
2021/05/17 00:28:20;;;;;;;9.57;1.15;;;;;;;;;;4913139;29;20090;-60
2021/05/17 00:30:46;;;;;;;3.45;1.27;;;;;;;;;;4915210;29;20062;-59
2021/05/17 00:33:12;;;;;;;7.00;1.63;;;;;;;;;;4915561;29;20055;-59
2021/05/17 00:35:39;;;;;;;4.60;1.02;;;;;;;;;;4914232;29;20133;-59
2021/05/17 00:38:04;;;;;;;5.20;1.20;;;;;;;;;;4915805;29;20046;-59
2021/05/17 00:40:30;;;;;;;4.97;1.75;;;;;;;;;;4912054;29;20035;-58
2021/05/17 00:42:56;;;;;;;5.20;1.20;;;;;;;;;;4909237;29;20046;-58
2021/05/17 00:45:23;;;;;;;9.35;1.38;;;;;;;;;;4916919;29;20062;-58
2021/05/17 00:47:50;;;;;;;8.35;1.80;;;;;;;;;;4914947;29;20051;-61
2021/05/17 00:50:19;;;;;;;7.57;1.50;;;;;;;;;;4916615;29;20050;-60
2021/05/17 00:52:46;;;;;;;6.50;1.08;;;;;;;;;;4915138;29;20044;-58
2021/05/17 00:55:12;;;;;;;6.97;1.30;;;;;;;;;;4915496;29;20127;-60
2021/05/17 00:57:38;;;;;;;8.88;1.70;;;;;;;;;;4914487;29;20100;-60
2021/05/17 01:00:06;;;;;;;8.75;1.77;;;;;;;;;;4916194;29;20171;-58
2021/05/17 01:02:32;;;;;;;12.45;1.60;;;;;;;;;;4913336;29;20067;-58
2021/05/17 01:04:58;;;;;;;6.30;1.40;;;;;;;;;;4914315;29;20684;-61
2021/05/17 01:07:27;;;;;;;6.18;1.27;;;;;;;;;;4916401;29;20074;-60
2021/05/17 01:09:55;;;;;;;5.43;1.30;;;;;;;;;;4916183;29;20146;-58
2021/05/17 01:12:24;;;;;;;5.53;1.23;;;;;;;;;;4914729;29;20063;-58
2021/05/17 01:14:53;;;;;;;5.50;1.20;;;;;;;;;;4917777;29;20099;-56
2021/05/17 01:17:20;;;;;;;9.60;1.50;;;;;;;;;;4915556;29;20044;-58
2021/05/17 01:20:05;;;;;;;5.82;1.20;;;;;;;;;;4916223;29;20040;-59
2021/05/17 01:22:36;;;;;;;8.77;1.20;;;;;;;;;;4915031;29;20127;-58
2021/05/17 01:25:02;;;;;;;10.75;1.63;;;;;;;;;;4915526;29;20050;-59
2021/05/17 01:27:29;;;;;;;9.52;1.40;;;;;;;;;;4917572;29;20043;-60
2021/05/17 01:29:56;;;;;;;7.40;1.45;;;;;;;;;;4918638;29;20318;-59
2021/05/17 01:32:22;;;;;;;8.57;1.20;;;;;;;;;;4916413;29;20474;-58
2021/05/17 01:34:48;;;;;;;12.82;1.20;;;;;;;;;;4916766;29;20042;-59
2021/05/17 01:37:14;;;;;;;44.80;2.63;;;;;;;;;;4897077;29;20039;-59
2021/05/17 01:39:42;;;;;;;8.23;1.17;;;;;;;;;;4915750;29;20043;-60
2021/05/17 01:42:08;;;;;;;15.27;1.95;;;;;;;;;;4919148;29;20523;-60
2021/05/17 01:44:37;;;;;;;7.05;1.60;;;;;;;;;;4917687;29;20138;-59
2021/05/17 01:47:03;;;;;;;13.88;2.10;;;;;;;;;;4916849;29;20052;-59
2021/05/17 01:49:31;;;;;;;12.57;2.47;;;;;;;;;;4893867;29;20550;-59
2021/05/17 01:51:57;;;;;;;7.68;1.70;;;;;;;;;;4899333;29;20040;-60
2021/05/17 01:54:29;;;;;;;7.95;1.35;;;;;;;;;;4895084;29;20336;-58
2021/05/17 01:56:55;;;;;;;6.25;1.10;;;;;;;;;;4910591;29;20306;-55
2021/05/17 01:59:31;;;;;;;8.82;1.13;;;;;;;;;;4905902;29;20046;-57
2021/05/17 02:01:57;;;;;;;9.75;1.35;;;;;;;;;;4909415;29;20490;-57
2021/05/17 02:04:24;;;;;;;7.80;1.33;;;;;;;;;;4914804;29;20055;-57
2021/05/17 02:06:50;;;;;;;7.78;1.20;;;;;;;;;;4913748;29;20056;-58
2021/05/17 02:09:17;;;;;;;7.00;1.48;;;;;;;;;;4910579;29;20075;-60
2021/05/17 02:11:43;;;;;;;11.60;2.00;;;;;;;;;;4913886;29;20043;-60
2021/05/17 02:14:09;;;;;;;7.65;1.40;;;;;;;;;;4905924;29;20039;-60
2021/05/17 02:16:35;;;;;;;9.95;1.40;;;;;;;;;;4911160;29;20060;-61
2021/05/17 02:19:01;;;;;;;9.43;1.50;;;;;;;;;;4913233;29;20155;-61
2021/05/17 02:21:27;;;;;;;7.35;1.00;;;;;;;;;;4911679;29;20570;-61
2021/05/17 02:23:53;;;;;;;13.25;1.50;;;;;;;;;;4911220;29;20126;-61
2021/05/17 02:26:22;;;;;;;8.27;1.48;;;;;;;;;;4913899;29;20556;-61
2021/05/17 02:28:48;;;;;;;6.63;1.20;;;;;;;;;;4917954;29;20639;-62
2021/05/17 02:31:14;;;;;;;9.40;1.02;;;;;;;;;;4914579;29;20163;-61
2021/05/17 02:33:40;;;;;;;4.30;1.08;;;;;;;;;;4917324;29;20521;-61
2021/05/17 02:36:06;;;;;;;5.18;1.10;;;;;;;;;;4916988;29;20135;-62
2021/05/17 02:38:32;;;;;;;8.05;2.67;;;;;;;;;;4915299;29;20044;-60
2021/05/17 02:40:59;;;;;;;8.07;1.17;;;;;;;;;;4917412;29;20043;-59
2021/05/17 02:43:26;;;;;;;6.15;1.00;;;;;;;;;;4917563;29;20443;-59
2021/05/17 02:45:51;;;;;;;6.82;1.38;;;;;;;;;;4918057;29;20688;-59
2021/05/17 02:48:20;;;;;;;6.18;1.25;;;;;;;;;;4917072;29;20028;-60
2021/05/17 02:50:47;;;;;;;8.85;1.33;;;;;;;;;;4917569;29;20108;-59
2021/05/17 02:53:22;;;;;;;6.78;1.10;;;;;;;;;;4917766;29;20041;-59
2021/05/17 02:55:49;;;;;;;4.47;1.05;;;;;;;;;;4916366;29;20043;-60
2021/05/17 02:58:17;;;;;;;7.45;2.55;;;;;;;;;;4917599;29;20518;-62
2021/05/17 03:00:44;;;;;;;8.68;1.85;;;;;;;;;;4916520;29;20075;-61
2021/05/17 03:03:12;;;;;;;12.57;1.70;;;;;;;;;;4914426;29;20044;-59
2021/05/17 03:05:40;;;;;;;5.68;1.65;;;;;;;;;;4915899;29;20593;-60
2021/05/17 03:08:07;;;;;;;6.15;1.17;;;;;;;;;;4916747;29;20969;-60
2021/05/17 03:10:34;;;;;;;5.07;1.60;;;;;;;;;;4913853;29;20031;-59
2021/05/17 03:13:07;;;;;;;7.03;1.20;;;;;;;;;;4914649;29;20483;-59
2021/05/17 03:15:32;;;;;;;8.68;1.33;;;;;;;;;;4914682;29;20058;-61
2021/05/17 03:17:58;;;;;;;6.50;1.10;;;;;;;;;;4909076;29;20047;-61
2021/05/17 03:20:25;;;;;;;8.95;1.10;;;;;;;;;;4908701;29;21269;-59
2021/05/17 03:22:51;;;;;;;3.78;1.08;;;;;;;;;;4910286;29;20071;-62
2021/05/17 03:25:22;;;;;;;6.97;1.33;;;;;;;;;;4915390;29;20466;-55
2021/05/17 03:27:48;;;;;;;7.60;1.70;;;;;;;;;;4917557;29;20051;-56
2021/05/17 03:30:14;;;;;;;5.30;1.10;;;;;;;;;;4916887;29;20047;-56
2021/05/17 03:32:40;;;;;;;6.35;1.10;;;;;;;;;;4916477;29;20036;-55
2021/05/17 03:35:06;;;;;;;5.38;1.10;;;;;;;;;;4916228;29;20150;-55
2021/05/17 03:37:32;;;;;;;5.72;1.05;;;;;;;;;;4916221;29;20049;-56
2021/05/17 03:39:58;;;;;;;6.22;1.30;;;;;;;;;;4918184;29;20122;-56
2021/05/17 03:42:24;;;;;;;7.15;1.33;;;;;;;;;;4917649;29;20135;-56
2021/05/17 03:44:49;;;;;;;5.80;0.90;;;;;;;;;;4916669;29;20051;-55
2021/05/17 03:47:15;;;;;;;6.60;1.20;;;;;;;;;;4917025;29;20101;-55
2021/05/17 03:49:41;;;;;;;11.10;1.40;;;;;;;;;;4914084;29;20102;-55
2021/05/17 03:52:07;;;;;;;9.25;1.45;;;;;;;;;;4917212;29;20142;-54
2021/05/17 03:54:33;;;;;;;7.93;1.23;;;;;;;;;;4917779;29;20075;-56
2021/05/17 03:56:59;;;;;;;5.30;1.10;;;;;;;;;;4916412;29;20040;-55
2021/05/17 03:59:25;;;;;;;6.60;1.20;;;;;;;;;;4916441;29;20148;-56
2021/05/17 04:01:51;;;;;;;4.75;1.00;;;;;;;;;;4915278;29;20067;-54
2021/05/17 04:04:19;;;;;;;5.07;1.08;;;;;;;;;;4915928;29;20134;-57
2021/05/17 04:14:39;;;;;;;6.30;1.08;;;;;;;;;;4916570;29;20424;-57
2021/05/17 04:17:05;;;;;;;11.55;1.60;;;;;;;;;;4917286;29;20344;-56
2021/05/17 04:19:31;;;;;;;6.90;1.10;;;;;;;;;;4916361;29;20046;-57
2021/05/17 04:21:57;;;;;;;6.10;1.25;;;;;;;;;;4917734;29;20305;-56
2021/05/17 04:24:23;;;;;;;6.55;1.00;;;;;;;;;;4915408;29;20532;-57
2021/05/17 04:26:49;;;;;;;6.25;0.95;;;;;;;;;;4917094;29;20043;-57
2021/05/17 04:29:14;;;;;;;5.03;1.00;;;;;;;;;;4917254;29;20138;-57
2021/05/17 04:31:40;;;;;;;8.80;1.20;;;;;;;;;;4914670;29;20036;-57
2021/05/17 04:34:06;;;;;;;7.80;1.30;;;;;;;;;;4917033;29;20123;-58
2021/05/17 04:36:32;;;;;;;13.93;1.30;;;;;;;;;;4915531;29;20043;-56
2021/05/17 04:38:59;;;;;;;12.85;1.20;;;;;;;;;;4918168;29;20039;-55
2021/05/17 04:41:25;;;;;;;7.38;1.23;;;;;;;;;;4917367;29;20036;-57
2021/05/17 04:43:52;;;;;;;7.90;1.10;;;;;;;;;;4916669;29;20044;-56
2021/05/17 04:46:17;;;;;;;7.15;1.30;;;;;;;;;;4899026;29;20063;-57
2021/05/17 04:48:49;;;;;;;8.20;1.25;;;;;;;;;;4914216;29;20032;-56
2021/05/17 04:51:25;;;;;;;5.83;1.23;;;;;;;;;;4915409;29;20043;-57
2021/05/17 04:53:51;;;;;;;4.93;1.10;;;;;;;;;;4916651;29;20515;-57
2021/05/17 04:56:17;;;;;;;5.53;0.98;;;;;;;;;;4916453;29;20047;-57
2021/05/17 04:58:43;;;;;;;7.38;1.10;;;;;;;;;;4911007;29;20082;-55
2021/05/17 05:01:09;;;;;;;6.70;1.10;;;;;;;;;;4914810;29;20127;-57
2021/05/17 05:03:35;;;;;;;6.97;1.30;;;;;;;;;;4913465;29;20427;-58
2021/05/17 05:06:01;;;;;;;7.82;1.50;;;;;;;;;;4915330;29;20055;-57
2021/05/17 05:08:27;;;;;;;7.10;1.20;;;;;;;;;;4915111;29;20585;-56
2021/05/17 05:10:53;;;;;;;23.92;1.65;;;;;;;;;;4914568;29;20170;-54
2021/05/17 05:13:19;;;;;;;5.90;1.25;;;;;;;;;;4915509;29;20993;-56
2021/05/17 05:15:45;;;;;;;6.25;1.10;;;;;;;;;;4917293;29;20076;-57
2021/05/17 05:18:11;;;;;;;10.07;1.70;;;;;;;;;;4916565;29;21956;-57
2021/05/17 05:20:37;;;;;;;6.18;1.20;;;;;;;;;;4913487;29;20040;-57
2021/05/17 05:23:04;;;;;;;6.15;1.00;;;;;;;;;;4916382;29;20464;-58
2021/05/17 05:26:44;;;;;;;6.10;1.00;;;;;;;;;;4915382;29;20510;-57
2021/05/17 05:28:34;;;;;;;6.10;1.20;;;;;;;;;;4906428;29;20131;-58
2021/05/17 05:33:26;;;;;;;5.10;1.02;;;;;;;;;;4913028;29;20522;-56
2021/05/17 05:35:52;;;;;;;6.90;1.20;;;;;;;;;;4914545;29;20653;-57
2021/05/17 05:38:17;;;;;;;10.27;1.48;;;;;;;;;;4914412;29;20048;-58
2021/05/17 05:40:43;;;;;;;7.82;1.17;;;;;;;;;;4915892;29;20855;-58
2021/05/17 05:43:09;;;;;;;9.90;0.98;;;;;;;;;;4917126;29;20111;-57
2021/05/17 05:45:43;;;;;;;3.75;1.02;;;;;;;;;;4913705;29;20712;-54
2021/05/17 05:48:09;;;;;;;11.60;1.25;;;;;;;;;;4914377;29;20043;-57
2021/05/17 05:50:34;;;;;;;10.70;1.17;;;;;;;;;;4912912;29;20046;-58
2021/05/17 05:53:00;;;;;;;4.70;1.30;;;;;;;;;;4916758;29;20518;-57
2021/05/17 05:55:26;;;;;;;5.88;1.33;;;;;;;;;;4915653;29;20036;-58
2021/05/17 05:57:53;;;;;;;7.22;1.30;;;;;;;;;;4915929;29;20097;-57
2021/05/17 06:00:20;;;;;;;8.18;1.35;;;;;;;;;;4917643;29;20039;-57
2021/05/17 06:02:46;;;;;;;7.78;1.42;;;;;;;;;;4919822;29;20039;-57
2021/05/17 06:05:12;;;;;;;8.77;2.00;;;;;;;;;;4919368;29;20051;-57
2021/05/17 06:07:38;;;;;;;5.70;1.50;;;;;;;;;;4917151;29;20052;-56
2021/05/17 06:10:05;;;;;;;8.75;1.75;;;;;;;;;;4919222;29;20061;-56
2021/05/17 06:12:31;;;;;;;11.07;1.55;;;;;;;;;;4917976;29;20118;-57
2021/05/17 06:15:03;;;;;;;7.53;1.63;;;;;;;;;;4918815;29;20134;-57
2021/05/17 06:17:29;;;;;;;5.47;1.70;;;;;;;;;;4917015;29;20553;-58
2021/05/17 06:19:55;;;;;;;7.65;1.67;;;;;;;;;;4918463;29;20052;-57
2021/05/17 06:22:22;;;;;;;9.40;1.75;;;;;;;;;;4918553;29;20044;-57
2021/05/17 06:24:48;;;;;;;11.93;2.45;;;;;;;;;;4918324;29;20039;-57
2021/05/17 06:27:14;;;;;;;9.55;2.70;;;;;;;;;;4918343;29;20521;-57
2021/05/17 06:29:42;;;;;;;11.82;3.22;;;;;;;;;;4918045;29;20043;-55
2021/05/17 06:32:09;;;;;;;12.73;3.13;;;;;;;;;;4919430;29;20044;-57
2021/05/17 06:34:38;;;;;;;14.00;3.55;;;;;;;;;;4919829;29;20043;-57
2021/05/17 06:37:03;;;;;;;9.88;3.10;;;;;;;;;;4918110;29;20099;-56
2021/05/17 06:39:29;;;;;;;13.82;3.30;;;;;;;;;;4919020;29;20048;-56
2021/05/17 06:41:55;;;;;;;10.95;3.10;;;;;;;;;;4918982;29;20048;-55
2021/05/17 06:44:21;;;;;;;10.68;3.22;;;;;;;;;;4918896;29;20032;-55
2021/05/17 06:46:47;;;;;;;10.18;3.00;;;;;;;;;;4901695;29;20094;-55
2021/05/17 06:49:14;;;;;;;8.38;3.08;;;;;;;;;;4919641;29;20047;-57
2021/05/17 06:51:39;;;;;;;15.80;3.20;;;;;;;;;;4918599;29;20167;-56
2021/05/17 06:54:08;;;;;;;6.20;2.95;;;;;;;;;;4918855;29;20040;-56
2021/05/17 06:59:03;;;;;;;10.25;3.40;;;;;;;;;;4918420;29;20242;-56
2021/05/17 07:01:29;;;;;;;13.00;4.07;;;;;;;;;;4918397;29;20400;-56
2021/05/17 07:03:56;;;;;;;13.65;4.55;;;;;;;;;;4920288;29;20044;-57
2021/05/17 07:06:27;;;;;;;9.98;3.72;;;;;;;;;;4917970;29;20146;-55
2021/05/17 07:14:34;;;;;;;13.13;4.90;;;;;;;;;;4892316;29;20126;-57
2021/05/17 07:17:00;;;;;;;13.55;5.47;;;;;;;;;;4918607;29;20036;-55
2021/05/17 07:19:26;;;;;;;19.20;6.18;;;;;;;;;;4917006;29;20050;-57
2021/05/17 07:24:36;;;;;;;16.75;7.38;;;;;;;;;;4919811;29;20050;-58
2021/05/17 07:27:02;;;;;;;17.65;7.75;;;;;;;;;;4918612;29;20048;-57
2021/05/17 07:29:32;;;;;;;20.67;8.63;;;;;;;;;;4917307;29;20561;-58
2021/05/17 07:31:58;;;;;;;18.70;7.50;;;;;;;;;;4919185;29;20032;-59
2021/05/17 07:34:24;;;;;;;18.30;8.70;;;;;;;;;;4917166;29;20095;-58
2021/05/17 07:36:49;;;;;;;16.52;7.53;;;;;;;;;;4918474;29;20071;-58
2021/05/17 07:39:15;;;;;;;16.70;6.70;;;;;;;;;;4919702;29;20061;-57
2021/05/17 07:41:41;;;;;;;16.35;5.60;;;;;;;;;;4919780;29;20070;-57
2021/05/17 07:44:07;;;;;;;13.68;5.13;;;;;;;;;;4919104;29;20103;-57
2021/05/17 07:46:33;;;;;;;17.20;4.93;;;;;;;;;;4916430;29;20066;-58
2021/05/17 07:51:39;;;;;;;14.23;3.88;;;;;;;;;;4917272;29;20542;-58
2021/05/17 07:54:05;;;;;;;13.63;4.60;;;;;;;;;;4917682;29;20055;-58
2021/05/17 07:56:31;;;;;;;11.98;3.22;;;;;;;;;;4917401;29;20044;-57
2021/05/17 07:58:58;;;;;;;9.70;3.10;;;;;;;;;;4918963;29;20051;-57
2021/05/17 08:01:23;;;;;;;20.00;3.17;;;;;;;;;;4913998;29;20043;-57
2021/05/17 08:03:50;;;;;;;8.35;3.03;;;;;;;;;;4916124;29;20039;-58
2021/05/17 08:06:16;;;;;;;6.65;2.20;;;;;;;;;;4917295;29;20140;-57
2021/05/17 08:08:42;;;;;;;6.53;2.00;;;;;;;;;;4914282;29;20067;-57
2021/05/17 08:11:08;;;;;;;9.48;2.47;;;;;;;;;;4918063;29;20591;-57
2021/05/17 08:13:34;;;;;;;10.45;3.03;;;;;;;;;;4916625;29;20032;-56
2021/05/17 08:16:00;;;;;;;12.07;2.78;;;;;;;;;;4916616;29;20734;-57
2021/05/17 08:18:25;;;;;;;8.07;2.85;;;;;;;;;;4915880;29;20059;-58
2021/05/17 08:20:51;;;;;;;8.02;3.10;;;;;;;;;;4915953;29;20131;-57
2021/05/17 08:23:17;;;;;;;9.32;2.80;;;;;;;;;;4915548;29;20094;-58
2021/05/17 08:25:44;;;;;;;7.10;2.20;;;;;;;;;;4916491;29;20091;-58
2021/05/17 08:28:11;;;;;;;8.05;2.35;;;;;;;;;;4916588;29;20094;-58
2021/05/17 08:30:44;;;;;;;7.90;2.08;;;;;;;;;;4915248;29;20087;-56
2021/05/17 08:33:10;;;;;;;8.48;2.10;;;;;;;;;;4918754;29;20051;-57
2021/05/17 08:35:37;;;;;;;8.95;2.10;;;;;;;;;;4917054;29;20046;-57
2021/05/17 08:38:03;;;;;;;9.43;2.30;;;;;;;;;;4916823;29;20043;-57
2021/05/17 08:40:29;;;;;;;5.80;2.35;;;;;;;;;;4916256;29;20059;-58
2021/05/17 08:42:55;;;;;;;9.15;2.70;;;;;;;;;;4916460;29;20099;-58
2021/05/17 08:45:21;;;;;;;12.27;2.47;;;;;;;;;;4916554;29;20028;-57
2021/05/17 08:47:47;;;;;;;9.48;2.60;;;;;;;;;;4918007;29;20574;-58
2021/05/17 08:50:13;;;;;;;7.07;2.22;;;;;;;;;;4918849;29;20036;-57
2021/05/17 08:52:39;;;;;;;5.88;1.90;;;;;;;;;;4915539;29;20491;-58
2021/05/17 08:55:06;;;;;;;7.70;2.08;;;;;;;;;;4917449;29;20044;-58
2021/05/17 08:57:32;;;;;;;7.85;2.10;;;;;;;;;;4915328;29;20684;-58
2021/05/17 08:59:57;;;;;;;5.80;1.70;;;;;;;;;;4918434;29;20043;-57
2021/05/17 09:02:23;;;;;;;5.93;1.98;;;;;;;;;;4914303;28;20126;-57
2021/05/17 09:05:09;;;;;;;6.63;1.60;;;;;;;;;;4916138;29;20058;-57
2021/05/17 09:07:40;;;;;;;5.68;1.75;;;;;;;;;;4914724;29;20062;-57
2021/05/17 09:10:13;;;;;;;5.68;1.80;;;;;;;;;;4916675;29;20040;-57
2021/05/17 09:12:59;;;;;;;6.10;1.80;;;;;;;;;;4915609;29;20036;-55
2021/05/17 09:15:29;;;;;;;8.50;1.80;;;;;;;;;;4915180;29;20031;-55
2021/05/17 09:17:59;;;;;;;11.63;2.00;;;;;;;;;;4916681;29;20490;-57
2021/05/17 09:20:33;;;;;;;7.60;1.90;;;;;;;;;;4912461;29;20043;-57
2021/05/17 09:23:06;;;;;;;7.38;1.60;;;;;;;;;;4916695;29;20043;-57
2021/05/17 09:25:32;;;;;;;4.53;1.65;;;;;;;;;;4914224;29;20047;-57
2021/05/17 09:28:02;;;;;;;4.45;1.50;;;;;;;;;;4916793;29;20040;-58
2021/05/17 09:30:44;;;;;;;6.20;2.00;;;;;;;;;;4915460;29;20048;-56
2021/05/17 09:33:12;;;;;;;4.97;1.88;;;;;;;;;;4917737;29;20032;-54
2021/05/17 09:35:38;;;;;;;3.30;1.30;;;;;;;;;;4915732;29;20048;-56
2021/05/17 09:38:06;;;;;;;4.90;1.38;;;;;;;;;;4916920;29;20036;-57
2021/05/17 09:40:33;;;;;;;8.20;1.50;;;;;;;;;;4915713;29;20055;-57
2021/05/17 09:43:00;;;;;;;6.60;1.63;;;;;;;;;;4918273;29;20146;-56
2021/05/17 09:45:30;;;;;;;6.90;1.60;;;;;;;;;;4916055;29;20036;-53
2021/05/17 09:47:56;;;;;;;4.45;1.50;;;;;;;;;;4915105;29;20550;-57
2021/05/17 09:50:22;;;;;;;6.32;1.40;;;;;;;;;;4913324;29;20108;-57
2021/05/17 09:52:48;;;;;;;5.18;1.80;;;;;;;;;;4917365;29;20904;-58
2021/05/17 09:55:13;;;;;;;5.63;1.83;;;;;;;;;;4916270;29;20123;-57
2021/05/17 09:57:39;;;;;;;7.03;1.55;;;;;;;;;;4915242;29;20796;-56
2021/05/17 10:00:08;;;;;;;5.10;1.52;;;;;;;;;;4915136;29;20046;-58
2021/05/17 10:02:36;;;;;;;5.20;1.23;;;;;;;;;;4916157;29;20039;-57
2021/05/17 10:05:10;;;;;;;4.45;1.38;;;;;;;;;;4916623;29;20067;-57
2021/05/17 10:07:36;;;;;;;6.70;1.35;;;;;;;;;;4913114;29;20091;-57
2021/05/17 10:10:03;;;;;;;4.35;1.27;;;;;;;;;;4914211;29;20043;-57
2021/05/17 10:12:29;;;;;;;5.68;1.60;;;;;;;;;;4913430;29;20115;-58
2021/05/17 10:14:55;;;;;;;7.07;1.50;;;;;;;;;;4915002;29;20828;-57
2021/05/17 10:17:21;;;;;;;5.85;1.35;;;;;;;;;;4914847;29;20052;-58
2021/05/17 10:19:47;;;;;;;10.35;1.90;;;;;;;;;;4914295;29;20035;-58
2021/05/17 10:22:13;;;;;;;4.93;1.38;;;;;;;;;;4916502;29;20050;-58
2021/05/17 10:24:38;;;;;;;10.38;1.60;;;;;;;;;;4913868;29;20511;-57
2021/05/17 10:27:05;;;;;;;7.10;1.67;;;;;;;;;;4917358;29;20449;-58
2021/05/17 10:29:34;;;;;;;4.78;1.40;;;;;;;;;;4915563;29;20118;-58
2021/05/17 10:32:01;;;;;;;6.65;1.40;;;;;;;;;;4915671;29;20408;-58
2021/05/17 10:34:27;;;;;;;7.63;1.63;;;;;;;;;;4915929;29;20511;-57
2021/05/17 10:37:00;;;;;;;5.82;1.67;;;;;;;;;;4917188;29;20048;-57
2021/05/17 10:39:31;;;;;;;5.97;1.63;;;;;;;;;;4915554;29;20488;-56
2021/05/17 10:42:18;;;;;;;7.03;1.33;;;;;;;;;;4917475;29;20047;-54
2021/05/17 10:48:13;;;;;;;6.40;1.50;;;;;;;;;;4917763;29;20055;-57
2021/05/17 10:50:39;;;;;;;6.35;1.60;;;;;;;;;;4918227;29;20052;-57
2021/05/17 10:53:05;;;;;;;7.53;1.70;;;;;;;;;;4919211;29;20032;-58
2021/05/17 10:55:33;;;;;;;4.40;1.50;;;;;;;;;;4917120;29;20043;-57
2021/05/17 11:00:33;;;;;;;5.10;1.75;;;;;;;;;;4914352;29;20036;-57
2021/05/17 11:03:05;;;;;;;8.60;1.42;;;;;;;;;;4918722;29;20083;-58
2021/05/17 11:05:31;;;;;;;6.03;1.52;;;;;;;;;;4917708;29;20047;-57
2021/05/17 11:07:59;;;;;;;3.85;1.40;;;;;;;;;;4916825;29;20050;-58
2021/05/17 11:10:40;;;;;;;4.43;1.63;;;;;;;;;;4915767;29;20051;-56
2021/05/17 11:13:10;;;;;;;9.75;1.60;;;;;;;;;;4917283;29;20055;-57
2021/05/17 11:15:39;;;;;;;8.70;1.38;;;;;;;;;;4917610;29;20565;-58
2021/05/17 11:18:05;;;;;;;7.97;1.42;;;;;;;;;;4918365;29;20130;-58
2021/05/17 11:20:40;;;;;;;8.77;1.48;;;;;;;;;;4917186;29;22102;-58
2021/05/17 11:23:18;;;;;;;6.07;1.77;;;;;;;;;;4918294;29;20478;-57
2021/05/17 11:25:44;;;;;;;7.22;1.70;;;;;;;;;;4914864;29;20099;-56
2021/05/17 11:28:10;;;;;;;6.13;1.50;;;;;;;;;;4918052;29;20044;-56
2021/05/17 11:30:39;;;;;;;8.07;1.90;;;;;;;;;;4917366;29;20506;-58
2021/05/17 11:33:15;;;;;;;6.80;1.52;;;;;;;;;;4917546;29;20054;-57
2021/05/17 11:36:00;;;;;;;12.30;1.77;;;;;;;;;;4916081;29;20437;-57
2021/05/17 11:38:26;;;;;;;9.07;1.52;;;;;;;;;;4917630;29;20340;-53
2021/05/17 11:40:52;;;;;;;6.80;1.40;;;;;;;;;;4916892;29;20028;-57
2021/05/17 11:43:18;;;;;;;9.02;2.08;;;;;;;;;;4916960;29;20161;-57
2021/05/17 11:45:45;;;;;;;7.18;1.67;;;;;;;;;;4918294;29;20047;-57
2021/05/17 11:48:11;;;;;;;11.88;2.42;;;;;;;;;;4919497;29;20054;-57
2021/05/17 11:50:37;;;;;;;7.75;1.65;;;;;;;;;;4914783;29;20039;-56
2021/05/17 11:53:03;;;;;;;7.15;1.90;;;;;;;;;;4918412;29;20402;-56
2021/05/17 11:55:28;;;;;;;5.05;1.67;;;;;;;;;;4916713;29;20494;-56
2021/05/17 11:57:55;;;;;;;8.13;2.05;;;;;;;;;;4917710;29;20053;-57
2021/05/17 12:00:24;;;;;;;4.82;1.25;;;;;;;;;;4915237;29;20047;-57
2021/05/17 12:02:56;;;;;;;5.38;1.02;;;;;;;;;;4915435;29;20092;-58
2021/05/17 12:05:23;;;;;;;6.00;1.27;;;;;;;;;;4916049;29;20257;-57
2021/05/17 12:07:51;;;;;;;5.60;1.35;;;;;;;;;;4918200;29;21975;-56
2021/05/17 12:10:17;;;;;;;11.43;1.30;;;;;;;;;;4917111;29;20051;-59
2021/05/17 12:12:44;;;;;;;3.25;1.10;;;;;;;;;;4916660;29;21996;-56
2021/05/17 12:15:13;;;;;;;5.53;1.20;;;;;;;;;;4916955;29;20054;-58
2021/05/17 12:17:39;;;;;;;5.68;1.50;;;;;;;;;;4916316;29;20039;-57
2021/05/17 12:20:07;;;;;;;2.95;0.90;;;;;;;;;;4916971;29;20042;-57
2021/05/17 12:22:35;;;;;;;3.83;1.35;;;;;;;;;;4915503;29;20087;-55
2021/05/17 12:25:03;;;;;;;3.30;0.82;;;;;;;;;;4916212;29;20146;-58
2021/05/17 12:27:28;;;;;;;3.83;1.08;;;;;;;;;;4916459;29;20056;-57
2021/05/17 12:29:57;;;;;;;6.75;1.40;;;;;;;;;;4916634;29;20509;-58
2021/05/17 12:32:25;;;;;;;5.90;1.15;;;;;;;;;;4917620;29;20085;-57
2021/05/17 12:34:53;;;;;;;4.70;1.27;;;;;;;;;;4915214;29;20435;-54
2021/05/17 12:37:20;;;;;;;3.10;1.00;;;;;;;;;;4917147;29;20091;-57
2021/05/17 12:40:04;;;;;;;4.25;1.15;;;;;;;;;;4915864;29;20036;-57
2021/05/17 12:42:30;;;;;;;5.82;1.50;;;;;;;;;;4917069;29;20628;-60
2021/05/17 12:45:02;;;;;;;6.95;1.00;;;;;;;;;;4916902;29;20047;-57
2021/05/17 12:47:36;;;;;;;5.68;1.40;;;;;;;;;;4916120;29;20070;-57
2021/05/17 12:50:02;;;;;;;6.22;1.13;;;;;;;;;;4918111;29;20067;-58
2021/05/17 12:52:32;;;;;;;12.88;1.60;;;;;;;;;;4918193;29;20457;-58
2021/05/17 12:55:07;;;;;;;5.50;1.10;;;;;;;;;;4918656;29;20491;-58
2021/05/17 12:57:53;;;;;;;5.55;1.40;;;;;;;;;;4899583;29;20039;-59
2021/05/17 13:00:35;;;;;;;5.00;1.25;;;;;;;;;;4917923;29;20683;-57
2021/05/17 13:03:02;;;;;;;5.13;1.20;;;;;;;;;;4917728;29;20059;-59
2021/05/17 13:05:47;;;;;;;5.57;1.20;;;;;;;;;;4917789;29;20040;-58
2021/05/17 13:08:12;;;;;;;6.88;1.10;;;;;;;;;;4916413;29;20077;-56
2021/05/17 13:10:58;;;;;;;5.57;1.00;;;;;;;;;;4916080;29;20486;-57
2021/05/17 13:13:42;;;;;;;6.20;1.30;;;;;;;;;;4916648;29;20051;-58
2021/05/17 13:16:12;;;;;;;5.45;1.20;;;;;;;;;;4915110;29;20048;-56
2021/05/17 13:32:15;;;;;;;10.80;1.30;;;;;;;;;;4915787;29;20051;-58
2021/05/17 13:34:43;;;;;;;5.05;1.02;;;;;;;;;;4916126;29;20063;-60
2021/05/17 13:37:09;;;;;;;23.08;2.00;;;;;;;;;;4916973;29;20518;-60
2021/05/17 13:39:35;;;;;;;9.60;1.40;;;;;;;;;;4917750;29;20042;-58
2021/05/17 13:42:01;;;;;;;5.68;1.10;;;;;;;;;;4918019;29;20094;-58
2021/05/17 13:44:26;;;;;;;8.50;1.20;;;;;;;;;;4917429;29;20051;-60
2021/05/17 13:46:53;;;;;;;7.60;1.65;;;;;;;;;;4917132;29;20469;-59
2021/05/17 13:49:19;;;;;;;7.15;1.40;;;;;;;;;;4916907;29;20134;-59
2021/05/17 13:51:45;;;;;;;13.63;1.67;;;;;;;;;;4917975;29;20063;-57
2021/05/17 13:54:10;;;;;;;13.10;1.58;;;;;;;;;;4918968;29;20430;-57
2021/05/17 13:56:36;;;;;;;7.45;1.20;;;;;;;;;;4918674;29;20212;-57
2021/05/17 13:59:02;;;;;;;10.93;1.60;;;;;;;;;;4918230;29;20031;-58
2021/05/17 14:01:28;;;;;;;4.82;1.13;;;;;;;;;;4918216;29;20048;-56
2021/05/17 14:03:54;;;;;;;8.18;1.17;;;;;;;;;;4918143;29;20565;-56
2021/05/17 14:06:20;;;;;;;6.55;1.08;;;;;;;;;;4916638;29;20104;-55
2021/05/17 14:08:45;;;;;;;5.10;1.00;;;;;;;;;;4919906;29;20043;-55
2021/05/17 14:11:12;;;;;;;7.45;1.20;;;;;;;;;;4920319;29;20040;-56
2021/05/17 14:13:38;;;;;;;7.80;1.35;;;;;;;;;;4916473;29;20106;-58
2021/05/17 14:16:04;;;;;;;7.28;1.40;;;;;;;;;;4919409;29;20047;-58
2021/05/17 14:18:30;;;;;;;6.45;1.30;;;;;;;;;;4918783;29;20039;-57
2021/05/17 14:20:55;;;;;;;11.20;1.27;;;;;;;;;;4919082;29;20166;-57
2021/05/17 14:23:21;;;;;;;12.18;1.52;;;;;;;;;;4922862;29;20066;-58
2021/05/17 14:25:47;;;;;;;13.90;1.75;;;;;;;;;;4920166;29;20416;-57
2021/05/17 14:28:13;;;;;;;6.03;1.52;;;;;;;;;;4919631;29;20470;-55
2021/05/17 14:30:39;;;;;;;10.52;1.65;;;;;;;;;;4918956;29;20052;-56
2021/05/17 14:33:07;;;;;;;13.07;2.10;;;;;;;;;;4920302;29;20075;-58
2021/05/17 14:35:33;;;;;;;7.90;1.30;;;;;;;;;;4920084;29;20054;-58
2021/05/17 14:37:59;;;;;;;8.68;1.30;;;;;;;;;;4919224;29;20102;-57
2021/05/17 14:40:25;;;;;;;12.85;1.67;;;;;;;;;;4920177;29;20904;-57
2021/05/17 14:42:51;;;;;;;8.48;1.25;;;;;;;;;;4903091;29;20044;-53
2021/05/17 14:45:17;;;;;;;7.18;1.40;;;;;;;;;;4918428;29;20514;-57
2021/05/17 14:47:43;;;;;;;7.72;1.90;;;;;;;;;;4919494;29;20060;-57
2021/05/17 14:50:10;;;;;;;11.38;1.50;;;;;;;;;;4920007;29;20138;-57
2021/05/17 14:52:36;;;;;;;4.97;1.10;;;;;;;;;;4918886;29;20067;-58
2021/05/17 14:55:03;;;;;;;9.48;2.22;;;;;;;;;;4920875;29;20134;-58
2021/05/17 14:57:29;;;;;;;9.65;1.00;;;;;;;;;;4920110;29;20078;-56
2021/05/17 14:59:55;;;;;;;11.38;1.38;;;;;;;;;;4919572;29;20151;-57
2021/05/17 15:02:22;;;;;;;9.60;1.25;;;;;;;;;;4916073;29;20131;-57
2021/05/17 15:04:48;;;;;;;9.70;1.90;;;;;;;;;;4918187;29;20035;-58
2021/05/17 15:07:14;;;;;;;8.55;1.27;;;;;;;;;;4915251;28;20062;-58
2021/05/17 15:09:40;;;;;;;8.75;1.38;;;;;;;;;;4918241;29;20056;-58
2021/05/17 15:12:06;;;;;;;7.90;1.30;;;;;;;;;;4916824;29;20036;-57
2021/05/17 15:14:32;;;;;;;12.90;1.58;;;;;;;;;;4914902;29;20082;-56
2021/05/17 15:16:58;;;;;;;7.22;1.17;;;;;;;;;;4918485;29;20039;-57
2021/05/17 15:19:23;;;;;;;6.88;1.63;;;;;;;;;;4920054;29;20047;-58
2021/05/17 15:21:49;;;;;;;4.28;1.30;;;;;;;;;;4917089;29;20523;-56
2021/05/17 15:24:15;;;;;;;8.93;1.75;;;;;;;;;;4916698;29;20127;-58
2021/05/17 15:26:44;;;;;;;10.63;1.58;;;;;;;;;;4918324;29;20051;-57